Time,TemperatureF,DewpointF,PressureIn,WindDirection,WindDirectionDegrees,WindSpeedMPH,WindSpeedGustMPH,Humidity,HourlyPrecipIn,Conditions,Clouds,dailyrainin,SoftwareType,DateUTC
2013-10-12 00:00:00,66.4,62.1,29.76,SW,218,0.0,0.0,86,0.00,,,0.00,Wunderground v.1.15,2013-10-12 05:00:00,
2013-10-12 00:05:00,66.5,62.2,29.77,SW,216,0.0,0.0,86,0.00,,,0.00,Wunderground v.1.15,2013-10-12 05:05:00,
2013-10-12 00:15:00,66.6,62.6,29.76,SSE,159,0.0,0.0,87,0.00,,,0.00,Wunderground v.1.15,2013-10-12 05:15:00,
2013-10-12 00:20:00,66.8,62.8,29.77,SSW,206,1.0,3.0,87,0.00,,,0.00,Wunderground v.1.15,2013-10-12 05:20:00,
2013-10-12 00:25:00,67.2,62.9,29.78,SSW,194,3.0,3.0,86,0.00,,,0.00,Wunderground v.1.15,2013-10-12 05:25:00,
2013-10-12 00:30:00,67.6,62.6,29.78,SSW,200,3.0,6.0,84,0.00,,,0.00,Wunderground v.1.15,2013-10-12 05:30:00,
2013-10-12 00:35:00,67.6,61.9,29.77,SSW,194,4.0,6.0,82,0.00,,,0.00,Wunderground v.1.15,2013-10-12 05:35:00,
2013-10-12 00:45:00,66.7,60.0,29.77,South,190,3.0,9.0,79,0.00,,,0.00,Wunderground v.1.15,2013-10-12 05:45:00,
2013-10-12 00:50:00,66.4,59.3,29.76,South,190,3.0,3.0,78,0.00,,,0.00,Wunderground v.1.15,2013-10-12 05:50:00,
2013-10-12 00:55:00,66.0,59.3,29.76,South,178,1.0,3.0,79,0.00,,,0.00,Wunderground v.1.15,2013-10-12 05:55:00,
2013-10-12 01:00:00,65.7,59.4,29.77,SW,216,0.0,0.0,80,0.00,,,0.00,Wunderground v.1.15,2013-10-12 06:00:00,
2013-10-12 01:10:00,64.9,58.9,29.78,SSW,200,1.0,1.0,81,0.00,,,0.00,Wunderground v.1.15,2013-10-12 06:10:00,
2013-10-12 01:15:00,64.7,59.4,29.77,SSW,196,1.0,1.0,83,0.00,,,0.00,Wunderground v.1.15,2013-10-12 06:15:00,
2013-10-12 01:20:00,64.5,59.6,29.78,South,180,1.0,3.0,84,0.00,,,0.00,Wunderground v.1.15,2013-10-12 06:20:00,
2013-10-12 01:25:00,64.4,59.8,29.79,WSW,249,1.0,3.0,85,0.00,,,0.00,Wunderground v.1.15,2013-10-12 06:25:00,
2013-10-12 01:30:00,63.8,57.2,29.79,North,355,0.0,0.0,79,0.00,,,0.00,Wunderground v.1.15,2013-10-12 06:30:00,
2013-10-12 01:40:00,62.9,54.1,29.80,WNW,298,0.0,0.0,73,0.00,,,0.00,Wunderground v.1.15,2013-10-12 06:40:00,
2013-10-12 01:50:00,61.6,52.1,29.81,WSW,254,1.0,1.0,71,0.00,,,0.00,Wunderground v.1.15,2013-10-12 06:50:00,
2013-10-12 01:55:00,61.1,51.6,29.81,WNW,290,0.0,2.0,71,0.00,,,0.00,Wunderground v.1.15,2013-10-12 06:55:00,
2013-10-12 02:00:00,60.6,51.1,29.82,WNW,303,0.0,1.0,71,0.00,,,0.00,Wunderground v.1.15,2013-10-12 07:00:00,
2013-10-12 02:05:00,60.1,50.7,29.82,NW,304,0.0,1.0,71,0.00,,,0.00,Wunderground v.1.15,2013-10-12 07:05:00,
2013-10-12 02:10:00,59.7,50.3,29.82,NW,319,0.0,0.0,71,0.00,,,0.00,Wunderground v.1.15,2013-10-12 07:10:00,
2013-10-12 02:15:00,59.4,50.0,29.83,NW,319,0.0,0.0,71,0.00,,,0.00,Wunderground v.1.15,2013-10-12 07:15:00,
2013-10-12 02:20:00,59.0,50.0,29.83,NW,320,0.0,0.0,72,0.00,,,0.00,Wunderground v.1.15,2013-10-12 07:20:00,
2013-10-12 02:30:00,58.5,49.1,29.84,NW,313,0.0,0.0,71,0.00,,,0.00,Wunderground v.1.15,2013-10-12 07:30:00,
2013-10-12 02:35:00,58.4,49.0,29.84,West,261,0.0,0.0,71,0.00,,,0.00,Wunderground v.1.15,2013-10-12 07:35:00,
2013-10-12 02:40:00,58.1,49.1,29.84,North,349,0.0,0.0,72,0.00,,,0.00,Wunderground v.1.15,2013-10-12 07:40:00,
2013-10-12 02:45:00,57.8,48.8,29.84,NW,318,0.0,0.0,72,0.00,,,0.00,Wunderground v.1.15,2013-10-12 07:45:00,
2013-10-12 02:50:00,57.6,48.6,29.84,North,11,0.0,0.0,72,0.00,,,0.00,Wunderground v.1.15,2013-10-12 07:50:00,
2013-10-12 02:55:00,57.4,48.8,29.85,NNW,339,0.0,0.0,73,0.00,,,0.00,Wunderground v.1.15,2013-10-12 07:55:00,
2013-10-12 03:00:00,57.2,48.6,29.85,WSW,250,0.0,0.0,73,0.00,,,0.00,Wunderground v.1.15,2013-10-12 08:00:00,
2013-10-12 03:10:00,57.1,48.5,29.85,WNW,302,0.0,0.0,73,0.00,,,0.00,Wunderground v.1.15,2013-10-12 08:10:00,
2013-10-12 03:15:00,57.1,48.2,29.85,NNW,343,0.0,6.0,72,0.00,,,0.00,Wunderground v.1.15,2013-10-12 08:15:00,
2013-10-12 03:20:00,57.0,48.1,29.85,North,9,1.0,1.0,72,0.00,,,0.00,Wunderground v.1.15,2013-10-12 08:20:00,
2013-10-12 03:25:00,56.9,48.0,29.84,WNW,292,1.0,1.0,72,0.00,,,0.00,Wunderground v.1.15,2013-10-12 08:25:00,
2013-10-12 03:30:00,56.8,47.9,29.85,NNW,327,0.0,0.0,72,0.00,,,0.00,Wunderground v.1.15,2013-10-12 08:30:00,
2013-10-12 03:35:00,56.7,47.8,29.85,WNW,291,0.0,0.0,72,0.00,,,0.00,Wunderground v.1.15,2013-10-12 08:35:00,
2013-10-12 03:40:00,56.5,47.6,29.85,NW,317,0.0,0.0,72,0.00,,,0.00,Wunderground v.1.15,2013-10-12 08:40:00,
2013-10-12 03:45:00,56.5,47.2,29.85,North,360,0.0,0.0,71,0.00,,,0.00,Wunderground v.1.15,2013-10-12 08:45:00,
2013-10-12 03:55:00,56.4,47.1,29.86,NNE,12,0.0,0.0,71,0.00,,,0.00,Wunderground v.1.15,2013-10-12 08:55:00,
2013-10-12 04:00:00,56.4,47.1,29.87,North,11,0.0,0.0,71,0.00,,,0.00,Wunderground v.1.15,2013-10-12 09:00:00,
2013-10-12 04:05:00,56.4,47.1,29.87,NW,325,0.0,0.0,71,0.00,,,0.00,Wunderground v.1.15,2013-10-12 09:05:00,
2013-10-12 04:10:00,56.4,46.7,29.87,WNW,284,0.0,0.0,70,0.00,,,0.00,Wunderground v.1.15,2013-10-12 09:10:00,
2013-10-12 04:15:00,56.4,46.7,29.87,WNW,284,0.0,0.0,70,0.00,,,0.00,Wunderground v.1.15,2013-10-12 09:15:00,
2013-10-12 04:25:00,56.3,46.6,29.87,WNW,284,0.0,0.0,70,0.00,,,0.00,Wunderground v.1.15,2013-10-12 09:25:00,
2013-10-12 04:30:00,56.2,46.9,29.87,WNW,284,0.0,0.0,71,0.00,,,0.00,Wunderground v.1.15,2013-10-12 09:30:00,
2013-10-12 04:35:00,56.1,46.8,29.88,WNW,284,0.0,0.0,71,0.00,,,0.00,Wunderground v.1.15,2013-10-12 09:35:00,
2013-10-12 04:40:00,56.0,46.7,29.88,WNW,284,0.0,0.0,71,0.00,,,0.00,Wunderground v.1.15,2013-10-12 09:40:00,
2013-10-12 04:50:00,55.7,46.4,29.89,WNW,284,0.0,0.0,71,0.00,,,0.00,Wunderground v.1.15,2013-10-12 09:50:00,
2013-10-12 04:55:00,55.5,46.2,29.89,WNW,284,0.0,0.0,71,0.00,,,0.00,Wunderground v.1.15,2013-10-12 09:55:00,
2013-10-12 05:00:00,55.3,46.1,29.89,WNW,296,0.0,0.0,71,0.00,,,0.00,Wunderground v.1.15,2013-10-12 10:00:00,
2013-10-12 05:05:00,55.1,46.2,29.90,West,264,0.0,0.0,72,0.00,,,0.00,Wunderground v.1.15,2013-10-12 10:05:00,
2013-10-12 05:10:00,54.8,45.9,29.90,West,264,0.0,0.0,72,0.00,,,0.00,Wunderground v.1.15,2013-10-12 10:10:00,
2013-10-12 05:15:00,54.5,46.0,29.90,West,264,0.0,0.0,73,0.00,,,0.00,Wunderground v.1.15,2013-10-12 10:15:00,
2013-10-12 05:20:00,54.3,45.8,29.91,West,263,0.0,0.0,73,0.00,,,0.00,Wunderground v.1.15,2013-10-12 10:20:00,
2013-10-12 05:30:00,53.9,45.4,29.91,SW,236,0.0,0.0,73,0.00,,,0.00,Wunderground v.1.15,2013-10-12 10:30:00,
2013-10-12 05:35:00,53.7,45.6,29.92,NW,319,0.0,0.0,74,0.00,,,0.00,Wunderground v.1.15,2013-10-12 10:35:00,
2013-10-12 05:40:00,53.5,45.4,29.92,West,277,0.0,0.0,74,0.00,,,0.00,Wunderground v.1.15,2013-10-12 10:40:00,
2013-10-12 05:45:00,53.3,45.2,29.92,West,278,0.0,0.0,74,0.00,,,0.00,Wunderground v.1.15,2013-10-12 10:45:00,
2013-10-12 05:50:00,53.0,45.3,29.92,West,278,0.0,0.0,75,0.00,,,0.00,Wunderground v.1.15,2013-10-12 10:50:00,
2013-10-12 05:55:00,52.8,45.1,29.92,West,280,0.0,0.0,75,0.00,,,0.00,Wunderground v.1.15,2013-10-12 10:55:00,
2013-10-12 06:00:00,52.5,45.2,29.92,West,271,0.0,0.0,76,0.00,,,0.00,Wunderground v.1.15,2013-10-12 11:00:00,
2013-10-12 06:10:00,52.1,45.1,29.92,West,259,0.0,0.0,77,0.00,,,0.00,Wunderground v.1.15,2013-10-12 11:10:00,
2013-10-12 06:15:00,51.9,44.9,29.93,West,259,0.0,0.0,77,0.00,,,0.00,Wunderground v.1.15,2013-10-12 11:15:00,
2013-10-12 06:20:00,51.7,45.1,29.93,West,259,0.0,0.0,78,0.00,,,0.00,Wunderground v.1.15,2013-10-12 11:20:00,
2013-10-12 06:25:00,51.4,45.1,29.93,West,259,0.0,0.0,79,0.00,,,0.00,Wunderground v.1.15,2013-10-12 11:25:00,
2013-10-12 06:30:00,51.2,44.9,29.93,West,259,0.0,0.0,79,0.00,,,0.00,Wunderground v.1.15,2013-10-12 11:30:00,
2013-10-12 06:35:00,51.0,44.7,29.93,West,259,0.0,0.0,79,0.00,,,0.00,Wunderground v.1.15,2013-10-12 11:35:00,
2013-10-12 06:45:00,50.7,44.8,29.93,West,259,0.0,0.0,80,0.00,,,0.00,Wunderground v.1.15,2013-10-12 11:45:00,
2013-10-12 06:50:00,50.6,44.7,29.93,West,259,0.0,0.0,80,0.00,,,0.00,Wunderground v.1.15,2013-10-12 11:50:00,
2013-10-12 06:55:00,50.4,44.5,29.93,West,259,0.0,0.0,80,0.00,,,0.00,Wunderground v.1.15,2013-10-12 11:55:00,
2013-10-12 07:00:00,50.3,44.7,29.93,West,259,0.0,0.0,81,0.00,,,0.00,Wunderground v.1.15,2013-10-12 12:00:00,
2013-10-12 07:10:00,50.0,44.4,29.93,West,259,0.0,0.0,81,0.00,,,0.00,Wunderground v.1.15,2013-10-12 12:10:00,
2013-10-12 07:15:00,49.9,44.3,29.94,West,259,0.0,0.0,81,0.00,,,0.00,Wunderground v.1.15,2013-10-12 12:15:00,
2013-10-12 07:20:00,49.8,44.2,29.94,West,259,0.0,0.0,81,0.00,,,0.00,Wunderground v.1.15,2013-10-12 12:20:00,
2013-10-12 07:25:00,49.7,44.4,29.94,WNW,289,0.0,0.0,82,0.00,,,0.00,Wunderground v.1.15,2013-10-12 12:25:00,
2013-10-12 07:30:00,49.6,44.3,29.95,WNW,289,0.0,0.0,82,0.00,,,0.00,Wunderground v.1.15,2013-10-12 12:30:00,
2013-10-12 07:35:00,49.5,44.2,29.96,West,269,0.0,0.0,82,0.00,,,0.00,Wunderground v.1.15,2013-10-12 12:35:00,
2013-10-12 07:45:00,49.5,44.2,29.96,West,270,0.0,0.0,82,0.00,,,0.00,Wunderground v.1.15,2013-10-12 12:45:00,
2013-10-12 07:50:00,49.4,44.1,29.97,West,270,0.0,0.0,82,0.00,,,0.00,Wunderground v.1.15,2013-10-12 12:50:00,
2013-10-12 07:55:00,49.5,44.2,29.97,West,270,0.0,0.0,82,0.00,,,0.00,Wunderground v.1.15,2013-10-12 12:55:00,
2013-10-12 08:00:00,49.5,44.2,29.97,West,269,0.0,0.0,82,0.00,,,0.00,Wunderground v.1.15,2013-10-12 13:00:00,
2013-10-12 08:10:00,49.6,44.3,29.98,WSW,252,0.0,0.0,82,0.00,,,0.00,Wunderground v.1.15,2013-10-12 13:10:00,
2013-10-12 08:15:00,49.8,44.5,29.98,WSW,252,0.0,0.0,82,0.00,,,0.00,Wunderground v.1.15,2013-10-12 13:15:00,
2013-10-12 08:20:00,50.1,44.5,29.98,NNW,333,0.0,0.0,81,0.00,,,0.00,Wunderground v.1.15,2013-10-12 13:20:00,
2013-10-12 08:25:00,50.3,44.4,29.98,NNW,331,0.0,0.0,80,0.00,,,0.00,Wunderground v.1.15,2013-10-12 13:25:00,
2013-10-12 08:35:00,51.1,44.8,29.98,West,268,0.0,2.0,79,0.00,,,0.00,Wunderground v.1.15,2013-10-12 13:35:00,
2013-10-12 08:40:00,51.7,44.7,29.99,West,281,0.0,0.0,77,0.00,,,0.00,Wunderground v.1.15,2013-10-12 13:40:00,
2013-10-12 08:45:00,52.2,44.9,29.99,NNW,331,0.0,0.0,76,0.00,,,0.00,Wunderground v.1.15,2013-10-12 13:45:00,
2013-10-12 08:50:00,52.6,44.9,29.99,SW,218,0.0,1.0,75,0.00,,,0.00,Wunderground v.1.15,2013-10-12 13:50:00,
2013-10-12 08:55:00,52.8,44.7,29.99,SSW,200,1.0,1.0,74,0.00,,,0.00,Wunderground v.1.15,2013-10-12 13:55:00,
2013-10-12 09:00:00,53.0,44.6,29.99,WSW,257,1.0,1.0,73,0.00,,,0.00,Wunderground v.1.15,2013-10-12 14:00:00,
2013-10-12 09:10:00,53.5,44.3,30.00,NNW,340,1.0,1.0,71,0.00,,,0.00,Wunderground v.1.15,2013-10-12 14:10:00,
2013-10-12 09:15:00,53.8,44.6,30.00,WNW,290,1.0,1.0,71,0.00,,,0.00,Wunderground v.1.15,2013-10-12 14:15:00,
2013-10-12 09:20:00,54.2,44.6,30.00,North,355,0.0,0.0,70,0.00,,,0.00,Wunderground v.1.15,2013-10-12 14:20:00,
2013-10-12 09:25:00,54.7,44.3,30.00,North,5,0.0,0.0,68,0.00,,,0.00,Wunderground v.1.15,2013-10-12 14:25:00,
2013-10-12 09:30:00,54.9,44.1,30.00,West,268,0.0,4.0,67,0.00,,,0.00,Wunderground v.1.15,2013-10-12 14:30:00,
2013-10-12 09:40:00,55.3,43.7,30.00,NW,311,1.0,1.0,65,0.00,,,0.00,Wunderground v.1.15,2013-10-12 14:40:00,
2013-10-12 09:45:00,55.4,43.8,30.00,WNW,290,1.0,1.0,65,0.00,,,0.00,Wunderground v.1.15,2013-10-12 14:45:00,
2013-10-12 09:50:00,55.7,43.7,30.01,WNW,297,1.0,1.0,64,0.00,,,0.00,Wunderground v.1.15,2013-10-12 14:50:00,
2013-10-12 09:55:00,56.0,44.0,30.01,NE,52,1.0,1.0,64,0.00,,,0.00,Wunderground v.1.15,2013-10-12 14:55:00,
2013-10-12 10:00:00,56.3,43.4,30.01,West,281,1.0,1.0,62,0.00,,,0.00,Wunderground v.1.15,2013-10-12 15:00:00,
2013-10-12 10:10:00,56.6,43.3,30.01,SW,235,1.0,1.0,61,0.00,,,0.00,Wunderground v.1.15,2013-10-12 15:10:00,
2013-10-12 10:15:00,56.9,43.2,30.02,North,360,1.0,1.0,60,0.00,,,0.00,Wunderground v.1.15,2013-10-12 15:15:00,
2013-10-12 10:20:00,57.2,43.4,30.02,NNW,331,1.0,1.0,60,0.00,,,0.00,Wunderground v.1.15,2013-10-12 15:20:00,
2013-10-12 10:30:00,57.5,43.3,30.02,SW,236,1.0,2.0,59,0.00,,,0.00,Wunderground v.1.15,2013-10-12 15:30:00,
2013-10-12 10:35:00,57.9,43.2,30.02,South,173,1.0,2.0,58,0.00,,,0.00,Wunderground v.1.15,2013-10-12 15:35:00,
2013-10-12 10:40:00,58.5,43.3,30.02,North,349,0.0,0.0,57,0.00,,,0.00,Wunderground v.1.15,2013-10-12 15:40:00,
2013-10-12 10:45:00,58.5,42.4,30.02,North,360,1.0,2.0,55,0.00,,,0.00,Wunderground v.1.15,2013-10-12 15:45:00,
2013-10-12 10:50:00,58.5,42.4,30.02,NE,51,2.0,2.0,55,0.00,,,0.00,Wunderground v.1.15,2013-10-12 15:50:00,
2013-10-12 10:55:00,58.5,42.4,30.02,WNW,293,1.0,2.0,55,0.00,,,0.00,Wunderground v.1.15,2013-10-12 15:55:00,
2013-10-12 11:05:00,59.3,43.1,30.02,North,5,0.0,1.0,55,0.00,,,0.00,Wunderground v.1.15,2013-10-12 16:05:00,
2013-10-12 11:10:00,59.8,42.6,30.02,WNW,303,0.0,0.0,53,0.00,,,0.00,Wunderground v.1.15,2013-10-12 16:10:00,
2013-10-12 11:15:00,60.0,42.8,30.03,NW,326,0.0,0.0,53,0.00,,,0.00,Wunderground v.1.15,2013-10-12 16:15:00,
2013-10-12 11:20:00,60.3,43.1,30.03,WNW,288,0.0,0.0,53,0.00,,,0.00,Wunderground v.1.15,2013-10-12 16:20:00,
2013-10-12 11:25:00,60.5,42.3,30.03,WNW,290,1.0,1.0,51,0.00,,,0.00,Wunderground v.1.15,2013-10-12 16:25:00,
2013-10-12 11:30:00,60.9,42.6,30.03,NW,321,1.0,1.0,51,0.00,,,0.00,Wunderground v.1.15,2013-10-12 16:30:00,
2013-10-12 11:40:00,61.5,41.6,30.03,South,179,1.0,1.0,48,0.00,,,0.00,Wunderground v.1.15,2013-10-12 16:40:00,
2013-10-12 11:45:00,61.7,42.3,30.03,NNW,344,1.0,2.0,49,0.00,,,0.00,Wunderground v.1.15,2013-10-12 16:45:00,
2013-10-12 11:50:00,61.7,41.8,30.03,SSW,202,1.0,1.0,48,0.00,,,0.00,Wunderground v.1.15,2013-10-12 16:50:00,
2013-10-12 11:55:00,61.8,41.3,30.03,NW,325,1.0,1.0,47,0.00,,,0.00,Wunderground v.1.15,2013-10-12 16:55:00,
2013-10-12 12:00:00,61.9,42.0,30.03,NW,308,1.0,1.0,48,0.00,,,0.00,Wunderground v.1.15,2013-10-12 17:00:00,
2013-10-12 12:05:00,62.2,41.7,30.04,NE,46,1.0,1.0,47,0.00,,,0.00,Wunderground v.1.15,2013-10-12 17:05:00,
2013-10-12 12:10:00,62.3,41.2,30.04,WNW,300,1.0,1.0,46,0.00,,,0.00,Wunderground v.1.15,2013-10-12 17:10:00,
2013-10-12 12:15:00,62.7,41.6,30.04,North,5,1.0,1.0,46,0.00,,,0.00,Wunderground v.1.15,2013-10-12 17:15:00,
2013-10-12 12:25:00,62.9,41.8,30.04,WNW,302,1.0,1.0,46,0.00,,,0.00,Wunderground v.1.15,2013-10-12 17:25:00,
2013-10-12 12:30:00,63.1,41.4,30.04,NW,306,0.0,0.0,45,0.00,,,0.00,Wunderground v.1.15,2013-10-12 17:30:00,
2013-10-12 12:35:00,63.2,41.5,30.04,WNW,292,0.0,0.0,45,0.00,,,0.00,Wunderground v.1.15,2013-10-12 17:35:00,
2013-10-12 12:40:00,63.4,41.7,30.04,West,273,1.0,1.0,45,0.00,,,0.00,Wunderground v.1.15,2013-10-12 17:40:00,
2013-10-12 12:45:00,63.6,41.9,30.04,North,360,1.0,2.0,45,0.00,,,0.00,Wunderground v.1.15,2013-10-12 17:45:00,
2013-10-12 12:50:00,63.8,42.0,30.04,WSW,249,1.0,1.0,45,0.00,,,0.00,Wunderground v.1.15,2013-10-12 17:50:00,
2013-10-12 12:55:00,64.0,42.2,30.04,NW,321,1.0,1.0,45,0.00,,,0.00,Wunderground v.1.15,2013-10-12 17:55:00,
2013-10-12 13:00:00,64.0,41.0,30.04,WSW,248,1.0,1.0,43,0.00,,,0.00,Wunderground v.1.15,2013-10-12 18:00:00,
2013-10-12 13:10:00,64.4,41.4,30.03,NW,309,0.0,0.0,43,0.00,,,0.00,Wunderground v.1.15,2013-10-12 18:10:00,
2013-10-12 13:20:00,65.2,42.1,30.03,NW,309,0.0,0.0,43,0.00,,,0.00,Wunderground v.1.15,2013-10-12 18:20:00,
2013-10-12 13:25:00,65.4,41.1,30.03,WNW,294,0.0,0.0,41,0.00,,,0.00,Wunderground v.1.15,2013-10-12 18:25:00,
2013-10-12 13:30:00,65.5,40.5,30.03,SW,231,1.0,2.0,40,0.00,,,0.00,Wunderground v.1.15,2013-10-12 18:30:00,
2013-10-12 13:35:00,65.6,40.6,30.03,WNW,299,1.0,2.0,40,0.00,,,0.00,Wunderground v.1.15,2013-10-12 18:35:00,
2013-10-12 13:40:00,65.9,40.9,30.03,West,271,1.0,1.0,40,0.00,,,0.00,Wunderground v.1.15,2013-10-12 18:40:00,
2013-10-12 13:45:00,66.2,39.8,30.03,SSW,211,1.0,1.0,38,0.00,,,0.00,Wunderground v.1.15,2013-10-12 18:45:00,
2013-10-12 13:50:00,66.0,40.3,30.03,West,275,1.0,2.0,39,0.00,,,0.00,Wunderground v.1.15,2013-10-12 18:50:00,
2013-10-12 13:55:00,66.0,39.7,30.03,WSW,237,1.0,2.0,38,0.00,,,0.00,Wunderground v.1.15,2013-10-12 18:55:00,
2013-10-12 14:04:00,66.0,40.3,30.04,WNW,301,1.0,7.0,39,0.00,,,0.00,Wunderground v.1.15,2013-10-12 19:04:00,
2013-10-12 14:10:00,65.9,39.6,30.04,WNW,299,2.0,2.0,38,0.00,,,0.00,Wunderground v.1.15,2013-10-12 19:10:00,
2013-10-12 14:15:00,66.0,38.3,30.04,WNW,283,1.0,2.0,36,0.00,,,0.00,Wunderground v.1.15,2013-10-12 19:15:00,
2013-10-12 14:25:00,66.4,40.0,30.05,West,260,0.0,1.0,38,0.00,,,0.00,Wunderground v.1.15,2013-10-12 19:25:00,
2013-10-12 14:30:00,66.2,38.4,30.05,WNW,284,1.0,1.0,36,0.00,,,0.00,Wunderground v.1.15,2013-10-12 19:30:00,
2013-10-12 14:35:00,65.8,38.8,30.05,West,268,1.0,1.0,37,0.00,,,0.00,Wunderground v.1.15,2013-10-12 19:35:00,
2013-10-12 14:40:00,65.8,38.1,30.05,NW,313,1.0,1.0,36,0.00,,,0.00,Wunderground v.1.15,2013-10-12 19:40:00,
2013-10-12 14:45:00,65.8,38.8,30.05,WNW,293,1.0,1.0,37,0.00,,,0.00,Wunderground v.1.15,2013-10-12 19:45:00,
2013-10-12 14:55:00,66.0,39.0,30.05,NNW,333,1.0,20.0,37,0.00,,,0.00,Wunderground v.1.15,2013-10-12 19:55:00,
2013-10-12 15:00:00,66.1,39.1,30.06,North,349,1.0,1.0,37,0.00,,,0.00,Wunderground v.1.15,2013-10-12 20:00:00,
2013-10-12 15:05:00,66.1,37.6,30.06,WNW,296,1.0,1.0,35,0.00,,,0.00,Wunderground v.1.15,2013-10-12 20:05:00,
2013-10-12 15:10:00,66.2,38.4,30.06,West,259,1.0,1.0,36,0.00,,,0.00,Wunderground v.1.15,2013-10-12 20:10:00,
2013-10-12 15:15:00,66.6,38.8,30.06,West,280,0.0,1.0,36,0.00,,,0.00,Wunderground v.1.15,2013-10-12 20:15:00,
2013-10-12 15:25:00,66.9,37.6,30.06,NW,304,0.0,0.0,34,0.00,,,0.00,Wunderground v.1.15,2013-10-12 20:25:00,
2013-10-12 15:35:00,66.6,36.6,30.06,WNW,294,0.0,0.0,33,0.00,,,0.00,Wunderground v.1.15,2013-10-12 20:35:00,
2013-10-12 15:40:00,66.6,37.3,30.06,SSW,194,0.0,0.0,34,0.00,,,0.00,Wunderground v.1.15,2013-10-12 20:40:00,
2013-10-12 15:45:00,66.7,37.4,30.06,WNW,284,0.0,0.0,34,0.00,,,0.00,Wunderground v.1.15,2013-10-12 20:45:00,
2013-10-12 15:50:00,66.9,37.6,30.06,WNW,301,0.0,0.0,34,0.00,,,0.00,Wunderground v.1.15,2013-10-12 20:50:00,
2013-10-12 15:55:00,67.0,37.7,30.06,South,191,0.0,0.0,34,0.00,,,0.00,Wunderground v.1.15,2013-10-12 20:55:00,
2013-10-12 16:00:00,67.0,37.7,30.06,WNW,293,0.0,0.0,34,0.00,,,0.00,Wunderground v.1.15,2013-10-12 21:00:00,
2013-10-12 16:10:00,66.8,36.8,30.06,WSW,247,0.0,0.0,33,0.00,,,0.00,Wunderground v.1.15,2013-10-12 21:10:00,
2013-10-12 16:15:00,66.9,36.1,30.07,WNW,291,0.0,0.0,32,0.00,,,0.00,Wunderground v.1.15,2013-10-12 21:15:00,
2013-10-12 16:20:00,66.8,36.0,30.07,SSW,194,0.0,0.0,32,0.00,,,0.00,Wunderground v.1.15,2013-10-12 21:20:00,
2013-10-12 16:30:00,66.5,36.5,30.07,WNW,296,0.0,0.0,33,0.00,,,0.00,Wunderground v.1.15,2013-10-12 21:30:00,
2013-10-12 16:35:00,66.7,35.9,30.07,NNW,341,0.0,0.0,32,0.00,,,0.00,Wunderground v.1.15,2013-10-12 21:35:00,
2013-10-12 16:40:00,66.8,36.0,30.07,NNE,26,0.0,0.0,32,0.00,,,0.00,Wunderground v.1.15,2013-10-12 21:40:00,
2013-10-12 16:45:00,66.6,36.6,30.07,West,261,0.0,1.0,33,0.00,,,0.00,Wunderground v.1.15,2013-10-12 21:45:00,
2013-10-12 16:55:00,66.3,36.3,30.07,NNW,327,0.0,0.0,33,0.00,,,0.00,Wunderground v.1.15,2013-10-12 21:55:00,
2013-10-12 17:00:00,66.0,36.1,30.07,NNW,327,0.0,0.0,33,0.00,,,0.00,Wunderground v.1.15,2013-10-12 22:00:00,
2013-10-12 17:05:00,66.0,36.1,30.08,West,271,0.0,0.0,33,0.00,,,0.00,Wunderground v.1.15,2013-10-12 22:05:00,
2013-10-12 17:15:00,65.9,36.0,30.08,West,267,0.0,0.0,33,0.00,,,0.00,Wunderground v.1.15,2013-10-12 22:15:00,
2013-10-12 17:20:00,65.8,35.9,30.08,WSW,253,0.0,0.0,33,0.00,,,0.00,Wunderground v.1.15,2013-10-12 22:20:00,
2013-10-12 17:25:00,65.8,35.9,30.08,West,261,0.0,0.0,33,0.00,,,0.00,Wunderground v.1.15,2013-10-12 22:25:00,
2013-10-12 17:30:00,65.6,36.5,30.08,WSW,246,0.0,0.0,34,0.00,,,0.00,Wunderground v.1.15,2013-10-12 22:30:00,
2013-10-12 17:40:00,64.7,36.4,30.08,North,355,0.0,0.0,35,0.00,,,0.00,Wunderground v.1.15,2013-10-12 22:40:00,
2013-10-12 17:45:00,64.0,36.5,30.09,South,191,0.0,0.0,36,0.00,,,0.00,Wunderground v.1.15,2013-10-12 22:45:00,
2013-10-12 17:50:00,63.5,36.0,30.09,SW,234,0.0,0.0,36,0.00,,,0.00,Wunderground v.1.15,2013-10-12 22:50:00,
2013-10-12 17:55:00,63.2,36.5,30.09,West,264,0.0,0.0,37,0.00,,,0.00,Wunderground v.1.15,2013-10-12 22:55:00,
2013-10-12 18:00:00,62.9,36.2,30.09,WNW,303,0.0,0.0,37,0.00,,,0.00,Wunderground v.1.15,2013-10-12 23:00:00,
2013-10-12 18:10:00,62.3,36.4,30.09,SW,234,0.0,0.0,38,0.00,,,0.00,Wunderground v.1.15,2013-10-12 23:10:00,
2013-10-12 18:15:00,62.1,36.2,30.09,SW,235,0.0,0.0,38,0.00,,,0.00,Wunderground v.1.15,2013-10-12 23:15:00,
2013-10-12 18:20:00,61.7,36.5,30.09,SW,234,0.0,0.0,39,0.00,,,0.00,Wunderground v.1.15,2013-10-12 23:20:00,
2013-10-12 18:25:00,61.3,36.8,30.10,SW,219,0.0,0.0,40,0.00,,,0.00,Wunderground v.1.15,2013-10-12 23:25:00,
2013-10-12 18:35:00,60.5,37.3,30.10,SW,218,0.0,0.0,42,0.00,,,0.00,Wunderground v.1.15,2013-10-12 23:35:00,
2013-10-12 18:40:00,60.1,36.9,30.10,SW,218,0.0,0.0,42,0.00,,,0.00,Wunderground v.1.15,2013-10-12 23:40:00,
2013-10-12 18:45:00,59.7,37.2,30.10,SW,219,0.0,0.0,43,0.00,,,0.00,Wunderground v.1.15,2013-10-12 23:45:00,
2013-10-12 18:50:00,59.2,37.3,30.10,SW,219,0.0,0.0,44,0.00,,,0.00,Wunderground v.1.15,2013-10-12 23:50:00,
2013-10-12 18:55:00,58.7,37.4,30.10,SW,219,0.0,0.0,45,0.00,,,0.00,Wunderground v.1.15,2013-10-12 23:55:00,
2013-10-12 19:00:00,58.5,37.2,30.10,SW,218,0.0,0.0,45,0.00,,,0.00,Wunderground v.1.15,2013-10-13 00:00:00,
2013-10-12 19:05:00,58.2,37.5,30.10,SW,219,0.0,0.0,46,0.00,,,0.00,Wunderground v.1.15,2013-10-13 00:05:00,
2013-10-12 19:10:00,57.7,37.6,30.11,SW,219,0.0,0.0,47,0.00,,,0.00,Wunderground v.1.15,2013-10-13 00:10:00,
2013-10-12 19:20:00,56.8,37.3,30.12,SW,218,0.0,0.0,48,0.00,,,0.00,Wunderground v.1.15,2013-10-13 00:20:00,
2013-10-12 19:25:00,56.6,37.6,30.12,SW,219,0.0,0.0,49,0.00,,,0.00,Wunderground v.1.15,2013-10-13 00:25:00,
2013-10-12 19:35:00,56.4,38.0,30.12,SW,219,0.0,0.0,50,0.00,,,0.00,Wunderground v.1.15,2013-10-13 00:35:00,
2013-10-12 19:40:00,56.2,37.8,30.12,SW,218,0.0,0.0,50,0.00,,,0.00,Wunderground v.1.15,2013-10-13 00:40:00,
2013-10-12 19:45:00,56.1,37.7,30.12,SW,219,0.0,0.0,50,0.00,,,0.00,Wunderground v.1.15,2013-10-13 00:45:00,
2013-10-12 19:50:00,55.9,37.5,30.12,SW,218,0.0,0.0,50,0.00,,,0.00,Wunderground v.1.15,2013-10-13 00:50:00,
2013-10-12 19:55:00,55.8,37.4,30.13,WSW,258,0.0,0.0,50,0.00,,,0.00,Wunderground v.1.15,2013-10-13 00:55:00,
2013-10-12 20:00:00,55.8,37.4,30.13,WSW,257,0.0,0.0,50,0.00,,,0.00,Wunderground v.1.15,2013-10-13 01:00:00,
2013-10-12 20:05:00,55.8,37.4,30.13,WSW,258,0.0,0.0,50,0.00,,,0.00,Wunderground v.1.15,2013-10-13 01:05:00,
2013-10-12 20:10:00,55.7,37.8,30.13,WSW,257,0.0,0.0,51,0.00,,,0.00,Wunderground v.1.15,2013-10-13 01:10:00,
2013-10-12 20:20:00,55.1,37.8,30.13,WSW,257,0.0,0.0,52,0.00,,,0.00,Wunderground v.1.15,2013-10-13 01:20:00,
2013-10-12 20:25:00,54.7,37.9,30.13,WSW,258,0.0,0.0,53,0.00,,,0.00,Wunderground v.1.15,2013-10-13 01:25:00,
2013-10-12 20:35:00,54.0,37.7,30.13,WSW,249,0.0,0.0,54,0.00,,,0.00,Wunderground v.1.15,2013-10-13 01:35:00,
2013-10-12 20:40:00,53.7,37.9,30.13,WSW,250,0.0,0.0,55,0.00,,,0.00,Wunderground v.1.15,2013-10-13 01:40:00,
2013-10-12 20:45:00,53.4,37.6,30.14,WSW,249,0.0,0.0,55,0.00,,,0.00,Wunderground v.1.15,2013-10-13 01:45:00,
2013-10-12 20:50:00,53.4,38.1,30.14,WSW,250,0.0,0.0,56,0.00,,,0.00,Wunderground v.1.15,2013-10-13 01:50:00,
2013-10-12 20:55:00,53.5,38.2,30.14,WSW,249,0.0,0.0,56,0.00,,,0.00,Wunderground v.1.15,2013-10-13 01:55:00,
2013-10-12 21:00:00,53.4,38.1,30.14,WSW,250,0.0,0.0,56,0.00,,,0.00,Wunderground v.1.15,2013-10-13 02:00:00,
2013-10-12 21:05:00,53.2,37.9,30.15,WSW,250,0.0,0.0,56,0.00,,,0.00,Wunderground v.1.15,2013-10-13 02:05:00,
2013-10-12 21:15:00,53.0,38.2,30.15,WSW,250,0.0,0.0,57,0.00,,,0.00,Wunderground v.1.15,2013-10-13 02:15:00,
2013-10-12 21:20:00,52.8,38.0,30.16,WSW,250,0.0,0.0,57,0.00,,,0.00,Wunderground v.1.15,2013-10-13 02:20:00,
2013-10-12 21:25:00,52.8,38.0,30.16,WSW,250,0.0,0.0,57,0.00,,,0.00,Wunderground v.1.15,2013-10-13 02:25:00,
2013-10-12 21:30:00,52.8,38.0,30.16,WSW,250,0.0,0.0,57,0.00,,,0.00,Wunderground v.1.15,2013-10-13 02:30:00,
2013-10-12 21:35:00,52.7,37.9,30.16,WSW,250,0.0,0.0,57,0.00,,,0.00,Wunderground v.1.15,2013-10-13 02:35:00,
2013-10-12 21:45:00,52.5,37.7,30.17,WSW,250,0.0,0.0,57,0.00,,,0.00,Wunderground v.1.15,2013-10-13 02:45:00,
2013-10-12 21:50:00,52.4,37.6,30.17,WSW,249,0.0,0.0,57,0.00,,,0.00,Wunderground v.1.15,2013-10-13 02:50:00,
2013-10-12 21:55:00,52.4,37.2,30.17,WSW,250,0.0,0.0,56,0.00,,,0.00,Wunderground v.1.15,2013-10-13 02:55:00,
2013-10-12 22:00:00,52.6,37.3,30.18,WSW,250,0.0,0.0,56,0.00,,,0.00,Wunderground v.1.15,2013-10-13 03:00:00,
2013-10-12 22:05:00,52.7,37.4,30.18,WSW,249,0.0,0.0,56,0.00,,,0.00,Wunderground v.1.15,2013-10-13 03:05:00,
2013-10-12 22:15:00,52.5,37.2,30.18,WSW,249,0.0,0.0,56,0.00,,,0.00,Wunderground v.1.15,2013-10-13 03:15:00,
2013-10-12 22:20:00,52.3,37.1,30.19,WSW,250,0.0,0.0,56,0.00,,,0.00,Wunderground v.1.15,2013-10-13 03:20:00,
2013-10-12 22:25:00,52.1,37.3,30.19,WSW,249,0.0,0.0,57,0.00,,,0.00,Wunderground v.1.15,2013-10-13 03:25:00,
2013-10-12 22:30:00,51.7,37.4,30.18,WSW,250,0.0,0.0,58,0.00,,,0.00,Wunderground v.1.15,2013-10-13 03:30:00,
2013-10-12 22:35:00,51.3,37.4,30.19,WSW,249,0.0,0.0,59,0.00,,,0.00,Wunderground v.1.15,2013-10-13 03:35:00,
2013-10-12 22:40:00,50.9,37.1,30.19,WSW,250,0.0,0.0,59,0.00,,,0.00,Wunderground v.1.15,2013-10-13 03:40:00,
2013-10-12 22:45:00,50.7,36.9,30.19,WSW,250,0.0,0.0,59,0.00,,,0.00,Wunderground v.1.15,2013-10-13 03:45:00,
2013-10-12 22:55:00,50.5,37.1,30.19,WSW,250,0.0,0.0,60,0.00,,,0.00,Wunderground v.1.15,2013-10-13 03:55:00,
2013-10-12 23:05:00,50.2,37.3,30.20,WSW,250,0.0,0.0,61,0.00,,,0.00,Wunderground v.1.15,2013-10-13 04:05:00,
2013-10-12 23:10:00,50.0,37.1,30.20,WSW,250,0.0,0.0,61,0.00,,,0.00,Wunderground v.1.15,2013-10-13 04:10:00,
2013-10-12 23:15:00,49.8,36.9,30.20,WSW,250,0.0,0.0,61,0.00,,,0.00,Wunderground v.1.15,2013-10-13 04:15:00,
2013-10-12 23:20:00,49.5,37.0,30.20,WSW,250,0.0,0.0,62,0.00,,,0.00,Wunderground v.1.15,2013-10-13 04:20:00,
2013-10-12 23:25:00,49.3,36.8,30.21,WSW,250,0.0,0.0,62,0.00,,,0.00,Wunderground v.1.15,2013-10-13 04:25:00,
2013-10-12 23:30:00,49.2,36.7,30.21,WSW,250,0.0,0.0,62,0.00,,,0.00,Wunderground v.1.15,2013-10-13 04:30:00,
2013-10-12 23:35:00,49.1,36.6,30.21,WSW,249,0.0,0.0,62,0.00,,,0.00,Wunderground v.1.15,2013-10-13 04:35:00,
2013-10-12 23:45:00,48.9,36.4,30.21,WSW,249,0.0,0.0,62,0.00,,,0.00,Wunderground v.1.15,2013-10-13 04:45:00,
2013-10-12 23:50:00,48.7,36.7,30.22,WSW,250,0.0,0.0,63,0.00,,,0.00,Wunderground v.1.15,2013-10-13 04:50:00,
2013-10-12 23:55:00,48.6,36.6,30.22,WSW,249,0.0,0.0,63,0.00,,,0.00,Wunderground v.1.15,2013-10-13 04:55:00,